createdAt,value
2022-09-23T00:00:10.390Z,7.60
2022-09-23T00:02:36.662Z,7.67
2022-09-23T00:05:03.162Z,7.43
2022-09-23T00:07:29.411Z,7.63
2022-09-23T00:09:56.040Z,7.93
2022-09-23T00:12:22.315Z,8.10
2022-09-23T00:14:48.520Z,8.83
2022-09-23T00:17:14.853Z,8.63
2022-09-23T00:19:41.160Z,9.27
2022-09-23T00:22:07.892Z,8.60
2022-09-23T00:24:34.255Z,7.93
2022-09-23T00:27:00.625Z,8.63
2022-09-23T00:29:27.450Z,8.90
2022-09-23T00:31:53.663Z,8.60
2022-09-23T00:34:19.880Z,8.37
2022-09-23T00:36:46.101Z,9.00
2022-09-23T00:39:12.363Z,8.53
2022-09-23T00:41:38.647Z,8.77
2022-09-23T00:44:23.636Z,8.43
2022-09-23T00:46:50.309Z,7.80
2022-09-23T00:49:23.342Z,8.37
2022-09-23T00:51:55.041Z,8.10
2022-09-23T00:54:22.188Z,9.20
2022-09-23T00:56:48.464Z,8.67
2022-09-23T00:59:14.722Z,8.80
2022-09-23T01:01:41.088Z,8.90
2022-09-23T01:04:07.910Z,7.67
2022-09-23T01:06:34.208Z,8.63
2022-09-23T01:09:00.446Z,8.27
2022-09-23T01:11:43.068Z,7.83
2022-09-23T01:14:19.805Z,8.30
2022-09-23T01:16:54.471Z,7.37
2022-09-23T01:19:34.153Z,7.77
2022-09-23T01:22:09.119Z,7.90
2022-09-23T01:24:41.915Z,7.60
2022-09-23T01:27:19.179Z,7.83
2022-09-23T01:29:59.628Z,7.67
2022-09-23T01:32:52.415Z,7.57
2022-09-23T01:35:31.004Z,7.33
2022-09-23T01:37:57.237Z,8.10
2022-09-23T01:40:28.653Z,7.43
2022-09-23T01:42:58.062Z,7.43
2022-09-23T01:45:40.394Z,7.53
2022-09-23T01:48:14.051Z,7.57
2022-09-23T01:50:56.506Z,7.50
2022-09-23T01:53:44.446Z,7.77
2022-09-23T01:56:13.079Z,7.23
2022-09-23T01:58:48.379Z,8.50
2022-09-23T02:01:17.378Z,7.27
2022-09-23T02:03:52.564Z,7.40
2022-09-23T02:06:25.411Z,7.47
2022-09-23T02:09:17.982Z,7.80
2022-09-23T02:11:46.057Z,7.63
2022-09-23T02:14:16.890Z,7.57
2022-09-23T02:16:45.475Z,7.10
2022-09-23T02:19:18.208Z,7.37
2022-09-23T02:21:47.365Z,7.43
2022-09-23T02:24:15.127Z,7.43
2022-09-23T02:26:54.555Z,6.73
2022-09-23T02:29:24.460Z,7.70
2022-09-23T02:32:04.902Z,7.10
2022-09-23T02:34:42.873Z,7.13
2022-09-23T02:37:21.380Z,7.70
2022-09-23T02:40:06.503Z,7.53
2022-09-23T02:42:38.576Z,7.70
2022-09-23T02:45:05.359Z,7.50
2022-09-23T02:47:33.078Z,7.07
2022-09-23T02:49:59.380Z,7.60
2022-09-23T02:52:25.737Z,8.23
2022-09-23T02:54:52.333Z,7.37
2022-09-23T02:57:18.976Z,7.70
2022-09-23T02:59:46.720Z,7.70
2022-09-23T03:02:24.205Z,7.40
2022-09-23T03:04:59.560Z,6.90
2022-09-23T03:07:25.780Z,7.30
2022-09-23T03:10:04.327Z,7.77
2022-09-23T03:12:48.477Z,7.27
2022-09-23T03:15:35.510Z,7.60
2022-09-23T03:18:12.399Z,7.00
2022-09-23T03:20:45.020Z,6.90
2022-09-23T03:23:14.777Z,7.20
2022-09-23T03:25:43.090Z,7.27
2022-09-23T03:28:09.842Z,7.70
2022-09-23T03:30:36.671Z,6.97
2022-09-23T03:33:08.080Z,7.00
2022-09-23T03:35:58.511Z,7.00
2022-09-23T03:38:26.177Z,7.00
2022-09-23T03:40:54.758Z,7.27
2022-09-23T03:43:21.070Z,6.97
2022-09-23T03:45:47.471Z,7.30
2022-09-23T03:48:16.572Z,6.93
2022-09-23T03:50:42.816Z,7.50
2022-09-23T03:53:09.070Z,6.87
2022-09-23T03:55:35.617Z,7.27
2022-09-23T03:58:03.112Z,7.40
2022-09-23T04:00:29.381Z,7.13
2022-09-23T04:02:57.148Z,7.07
2022-09-23T04:05:23.367Z,7.10
2022-09-23T04:07:51.062Z,6.97
2022-09-23T04:10:17.316Z,7.37
2022-09-23T04:12:43.519Z,7.23
2022-09-23T04:15:10.128Z,7.10
2022-09-23T04:17:36.512Z,7.40
2022-09-23T04:20:03.256Z,7.13
2022-09-23T04:22:29.634Z,6.30
2022-09-23T04:24:56.158Z,7.27
2022-09-23T04:27:22.372Z,7.17
2022-09-23T04:29:48.626Z,6.77
2022-09-23T04:32:14.839Z,7.00
2022-09-23T04:34:41.082Z,7.07
2022-09-23T04:37:07.314Z,6.60
2022-09-23T04:39:33.565Z,7.00
2022-09-23T04:41:59.778Z,7.20
2022-09-23T04:44:28.034Z,7.17
2022-09-23T04:46:54.307Z,6.90
2022-09-23T04:49:20.612Z,7.30
2022-09-23T04:51:47.528Z,6.57
2022-09-23T04:54:15.008Z,6.20
2022-09-23T04:56:41.527Z,6.80
2022-09-23T04:59:08.677Z,6.57
2022-09-23T05:01:36.258Z,6.80
2022-09-23T05:04:05.164Z,7.00
2022-09-23T05:06:32.188Z,6.97
2022-09-23T05:08:59.126Z,7.00
2022-09-23T05:11:25.882Z,6.57
2022-09-23T05:13:52.965Z,6.90
2022-09-23T05:16:19.790Z,6.80
2022-09-23T05:18:46.650Z,6.83
2022-09-23T05:21:13.870Z,7.73
2022-09-23T05:23:40.859Z,7.57
2022-09-23T05:26:08.764Z,7.13
2022-09-23T05:28:35.936Z,7.40
2022-09-23T05:31:04.361Z,7.43
2022-09-23T05:33:31.407Z,6.63
2022-09-23T05:35:57.959Z,6.83
2022-09-23T05:38:24.383Z,6.83
2022-09-23T05:40:57.518Z,6.70
2022-09-23T05:43:24.688Z,7.00
2022-09-23T06:05:13.978Z,7.53
2022-09-23T06:07:40.218Z,7.27
2022-09-23T06:10:06.747Z,7.77
2022-09-23T06:12:33.293Z,6.77
2022-09-23T06:15:00.110Z,6.50
2022-09-23T06:17:26.352Z,6.83
2022-09-23T06:19:52.570Z,6.60
2022-09-23T06:22:18.798Z,6.03
2022-09-23T06:24:45.067Z,6.47
2022-09-23T06:27:11.276Z,6.47
2022-09-23T06:29:37.518Z,6.33
2022-09-23T06:32:04.668Z,6.07
2022-09-23T06:34:33.861Z,6.63
2022-09-23T06:37:15.291Z,6.17
2022-09-23T06:39:44.674Z,6.50
2022-09-23T06:42:10.903Z,6.47
2022-09-23T06:44:37.204Z,6.40
2022-09-23T06:47:03.456Z,6.30
2022-09-23T06:49:29.852Z,5.80
2022-09-23T06:51:56.114Z,5.73
2022-09-23T06:54:22.412Z,5.87
2022-09-23T06:56:48.639Z,6.10
2022-09-23T06:59:16.947Z,5.63
2022-09-23T07:01:43.292Z,5.97
2022-09-23T07:04:10.698Z,5.73
2022-09-23T07:06:37.234Z,5.73
2022-09-23T07:09:04.582Z,5.73
2022-09-23T07:11:30.859Z,5.50
2022-09-23T07:13:57.087Z,5.20
2022-09-23T07:16:23.414Z,5.57
2022-09-23T07:18:49.768Z,5.80
2022-09-23T07:21:17.649Z,5.87
2022-09-23T07:23:45.947Z,5.90
2022-09-23T07:26:12.860Z,6.20
2022-09-23T07:28:39.340Z,6.10
2022-09-23T07:31:07.518Z,6.20
2022-09-23T07:33:37.852Z,6.10
2022-09-23T07:36:05.095Z,5.93
2022-09-23T07:38:31.364Z,5.90
2022-09-23T07:41:02.496Z,5.90
2022-09-23T07:43:29.939Z,5.93
2022-09-23T07:45:56.214Z,5.37
2022-09-23T07:48:22.485Z,5.50
2022-09-23T07:50:48.697Z,5.43
2022-09-23T07:53:15.741Z,5.30
2022-09-23T07:55:41.979Z,5.07
2022-09-23T07:58:08.195Z,5.23
2022-09-23T08:00:35.700Z,5.03
2022-09-23T08:03:02.780Z,4.07
2022-09-23T08:05:29.080Z,4.50
2022-09-23T08:07:55.326Z,4.23
2022-09-23T08:10:21.680Z,3.83
2022-09-23T08:12:48.899Z,4.70
2022-09-23T08:15:17.070Z,4.17
2022-09-23T08:17:43.811Z,4.00
2022-09-23T08:20:30.925Z,4.10
2022-09-23T08:22:57.177Z,4.50
2022-09-23T08:25:23.682Z,4.43
2022-09-23T08:27:49.916Z,4.60
2022-09-23T08:30:16.175Z,3.70
2022-09-23T08:32:42.404Z,3.90
2022-09-23T08:35:08.792Z,4.23
2022-09-23T08:37:35.025Z,4.30
2022-09-23T08:40:01.431Z,4.00
2022-09-23T08:42:31.606Z,4.03
2022-09-23T08:45:00.422Z,3.90
2022-09-23T08:47:29.647Z,3.60
2022-09-23T08:49:59.078Z,3.20
2022-09-23T08:52:31.869Z,3.53
2022-09-23T08:54:58.263Z,3.20
2022-09-23T08:57:34.696Z,3.37
2022-09-23T09:00:01.749Z,3.27
2022-09-23T09:02:28.393Z,3.40
2022-09-23T09:04:57.197Z,3.50
2022-09-23T09:07:36.614Z,3.33
2022-09-23T09:10:03.541Z,3.33
2022-09-23T09:12:48.784Z,3.40
2022-09-23T09:15:18.381Z,3.20
2022-09-23T09:17:48.422Z,3.00
2022-09-23T09:20:21.305Z,2.93
2022-09-23T09:23:00.501Z,2.70
2022-09-23T09:25:45.632Z,3.07
2022-09-23T09:28:35.813Z,2.50
2022-09-23T09:31:05.651Z,2.60
2022-09-23T09:33:36.788Z,2.83
2022-09-23T09:36:08.983Z,2.57
2022-09-23T09:38:36.315Z,2.50
2022-09-23T09:41:11.267Z,2.50
2022-09-23T09:43:44.064Z,2.20
2022-09-23T09:46:23.092Z,2.53
2022-09-23T09:48:53.747Z,2.17
2022-09-23T09:51:21.768Z,2.33
2022-09-23T09:53:52.000Z,2.07
2022-09-23T09:56:20.717Z,2.00
2022-09-23T09:58:49.027Z,2.30
2022-09-23T10:01:23.343Z,1.90
2022-09-23T10:03:53.033Z,1.80
2022-09-23T10:06:27.077Z,1.70
2022-09-23T10:09:08.513Z,2.10
2022-09-23T10:11:34.910Z,2.00
2022-09-23T10:14:10.290Z,2.17
2022-09-23T10:16:37.207Z,1.50
2022-09-23T10:19:04.336Z,1.50
2022-09-23T10:21:35.854Z,1.27
2022-09-23T10:24:03.599Z,1.63
2022-09-23T10:26:40.517Z,1.87
2022-09-23T10:29:20.688Z,1.27
2022-09-23T10:31:46.923Z,1.50
2022-09-23T10:34:26.411Z,1.80
2022-09-23T10:37:01.736Z,1.70
2022-09-23T10:39:46.846Z,1.53
2022-09-23T10:42:38.879Z,1.70
2022-09-23T10:45:26.842Z,1.30
2022-09-23T10:48:04.673Z,1.40
2022-09-23T10:50:37.113Z,1.40
2022-09-23T10:53:12.209Z,1.60
2022-09-23T10:55:57.346Z,1.43
2022-09-23T10:58:30.521Z,1.60
2022-09-23T11:01:02.790Z,1.63
2022-09-23T11:03:35.103Z,1.60
2022-09-23T11:06:11.257Z,1.70
2022-09-23T11:08:43.421Z,1.73
2022-09-23T11:11:18.515Z,1.10
2022-09-23T11:13:54.616Z,1.20
2022-09-23T11:16:32.070Z,1.37
2022-09-23T11:19:03.270Z,1.40
2022-09-23T11:21:38.788Z,1.37
2022-09-23T11:24:28.280Z,1.30
2022-09-23T11:27:07.614Z,1.10
2022-09-23T11:29:52.280Z,1.33
2022-09-23T11:32:21.613Z,1.20
2022-09-23T11:34:55.637Z,1.17
2022-09-23T11:37:27.231Z,1.30
2022-09-23T11:40:01.086Z,1.30
2022-09-23T11:42:29.808Z,1.30
2022-09-23T11:44:58.257Z,1.47
2022-09-23T11:47:29.092Z,1.37
2022-09-23T11:49:59.493Z,1.50
2022-09-23T11:52:34.946Z,1.40
2022-09-23T11:55:13.964Z,1.30
2022-09-23T11:57:49.687Z,1.47
2022-09-23T12:03:39.115Z,1.43
2022-09-23T12:06:19.037Z,1.70
2022-09-23T12:08:45.422Z,1.73
2022-09-23T12:11:14.358Z,1.50
2022-09-23T12:13:50.036Z,1.50
2022-09-23T12:16:30.410Z,1.80
2022-09-23T12:19:04.488Z,1.60
2022-09-23T12:21:49.819Z,1.73
2022-09-23T12:24:20.154Z,1.50
2022-09-23T12:26:49.952Z,2.83
2022-09-23T12:29:16.464Z,2.17
2022-09-23T12:31:45.361Z,1.50
2022-09-23T12:34:24.690Z,1.70
2022-09-23T12:36:51.115Z,1.57
2022-09-23T12:39:22.484Z,1.83
2022-09-23T12:41:50.658Z,1.40
2022-09-23T12:44:23.262Z,1.60
2022-09-23T12:47:09.449Z,1.30
2022-09-23T12:49:37.144Z,1.50
2022-09-23T12:52:12.215Z,1.73
2022-09-23T12:54:39.205Z,1.67
2022-09-23T12:57:09.144Z,1.97
2022-09-23T12:59:53.934Z,1.50
2022-09-23T13:02:24.679Z,1.70
2022-09-23T13:05:28.887Z,1.90
2022-09-23T13:07:58.904Z,2.47
2022-09-23T13:10:28.479Z,3.30
2022-09-23T13:12:55.801Z,1.60
2022-09-23T13:15:29.722Z,1.50
2022-09-23T13:18:14.719Z,1.30
2022-09-23T13:20:40.990Z,1.50
2022-09-23T13:23:25.180Z,1.20
2022-09-23T13:25:53.188Z,1.20
2022-09-23T13:28:30.586Z,1.53
2022-09-23T13:30:56.863Z,2.00
2022-09-23T13:33:29.649Z,1.63
2022-09-23T13:35:57.932Z,2.30
2022-09-23T13:38:26.160Z,1.27
2022-09-23T13:40:58.417Z,1.10
2022-09-23T13:43:27.462Z,1.33
2022-09-23T13:45:53.786Z,1.20
2022-09-23T13:48:23.649Z,1.30
2022-09-23T13:50:51.878Z,1.37
2022-09-23T13:53:21.841Z,2.23
2022-09-23T13:55:58.654Z,1.20
2022-09-23T13:58:28.087Z,1.30
2022-09-23T14:00:54.432Z,1.57
2022-09-23T14:03:35.369Z,1.50
2022-09-23T14:06:08.856Z,1.00
2022-09-23T14:08:35.832Z,1.40
2022-09-23T14:11:03.956Z,1.30
2022-09-23T14:13:32.207Z,1.40
2022-09-23T14:15:59.985Z,1.30
2022-09-23T14:18:26.767Z,1.30
2022-09-23T14:20:53.111Z,1.23
2022-09-23T14:23:24.396Z,1.03
2022-09-23T14:25:51.844Z,1.60
2022-09-23T14:28:19.575Z,1.30
2022-09-23T14:30:47.943Z,1.00
2022-09-23T14:33:15.683Z,1.03
2022-09-23T14:35:46.442Z,1.00
2022-09-23T14:38:31.388Z,1.20
2022-09-23T14:41:17.340Z,1.03
2022-09-23T14:43:51.688Z,1.23
2022-09-23T14:46:19.359Z,1.33
2022-09-23T14:48:56.278Z,1.20
2022-09-23T14:51:29.103Z,1.23
2022-09-23T14:53:55.341Z,1.20
2022-09-23T14:56:22.107Z,0.90
2022-09-23T14:58:53.442Z,1.20
2022-09-23T15:01:34.905Z,1.20
2022-09-23T15:04:14.793Z,1.10
2022-09-23T15:06:46.829Z,1.30
2022-09-23T15:09:33.492Z,1.10
2022-09-23T15:12:01.108Z,1.10
2022-09-23T15:14:44.893Z,1.17
2022-09-23T15:17:17.266Z,1.00
2022-09-23T15:19:44.100Z,1.00
2022-09-23T15:22:11.158Z,1.27
2022-09-23T15:24:40.008Z,1.43
2022-09-23T15:27:10.540Z,1.30
2022-09-23T15:29:36.744Z,1.20
2022-09-23T15:32:03.048Z,1.70
2022-09-23T15:34:30.862Z,1.60
2022-09-23T15:36:57.128Z,1.40
2022-09-23T15:39:31.958Z,1.40
2022-09-23T15:42:01.955Z,1.27
2022-09-23T15:44:29.809Z,1.60
2022-09-23T15:46:59.120Z,1.43
2022-09-23T15:49:31.662Z,1.40
2022-09-23T15:52:01.089Z,1.50
2022-09-23T15:54:32.300Z,1.30
2022-09-23T15:56:58.548Z,1.50
2022-09-23T15:59:24.791Z,1.33
2022-09-23T16:01:51.567Z,1.40
2022-09-23T16:04:17.892Z,1.53
2022-09-23T16:06:45.382Z,1.33
2022-09-23T16:09:14.814Z,1.30
2022-09-23T16:11:48.325Z,1.30
2022-09-23T16:14:18.076Z,1.30
2022-09-23T16:16:45.251Z,1.63
2022-09-23T16:19:14.871Z,1.93
2022-09-23T16:21:41.155Z,2.17
2022-09-23T16:24:28.180Z,1.77
2022-09-23T16:26:59.748Z,2.20
2022-09-23T16:29:27.356Z,1.87
2022-09-23T16:31:56.531Z,2.90
2022-09-23T16:34:22.859Z,2.97
2022-09-23T16:36:49.126Z,2.90
2022-09-23T16:39:15.796Z,2.50
2022-09-23T16:41:43.433Z,2.30
2022-09-23T16:44:12.379Z,2.13
2022-09-23T16:46:40.290Z,2.30
2022-09-23T16:49:06.566Z,2.13
2022-09-23T16:51:37.998Z,1.90
2022-09-23T16:54:10.080Z,2.03
2022-09-23T16:56:36.873Z,2.03
2022-09-23T16:59:05.347Z,2.10
2022-09-23T17:01:50.279Z,2.10
2022-09-23T17:04:17.151Z,2.20
2022-09-23T17:06:50.156Z,2.10
2022-09-23T17:09:18.334Z,1.97
2022-09-23T17:11:50.189Z,2.30
2022-09-23T17:14:16.472Z,1.87
2022-09-23T17:16:43.075Z,2.60
2022-09-23T17:19:10.804Z,2.20
2022-09-23T17:21:37.076Z,2.33
2022-09-23T17:24:03.431Z,2.83
2022-09-23T17:26:29.688Z,2.60
2022-09-23T17:28:56.504Z,2.40
2022-09-23T17:31:24.166Z,2.10
2022-09-23T17:33:51.015Z,2.13
2022-09-23T17:36:17.507Z,2.43
2022-09-23T17:38:45.667Z,3.30
2022-09-23T17:41:12.817Z,2.73
2022-09-23T17:43:39.412Z,2.37
2022-09-23T17:46:07.269Z,2.70
2022-09-23T17:48:34.989Z,2.60
2022-09-23T17:51:02.867Z,2.53
2022-09-23T17:53:34.978Z,2.73
2022-09-23T17:56:04.069Z,3.70
2022-09-23T17:58:31.195Z,3.30
2022-09-23T18:00:57.624Z,3.20
2022-09-23T18:03:24.712Z,3.57
2022-09-23T18:05:50.931Z,3.67
2022-09-23T18:08:17.239Z,3.60
2022-09-23T18:10:43.680Z,3.50
2022-09-23T18:13:10.210Z,3.30
2022-09-23T18:15:37.155Z,4.00
2022-09-23T18:18:03.919Z,4.00
2022-09-23T18:20:30.548Z,4.17
2022-09-23T18:22:56.805Z,4.70
2022-09-23T18:25:38.646Z,5.67
2022-09-23T18:28:06.108Z,6.50
2022-09-23T18:30:33.379Z,6.43
2022-09-23T18:32:59.778Z,6.73
2022-09-23T18:35:26.059Z,6.37
2022-09-23T18:37:52.284Z,6.37
2022-09-23T18:40:19.046Z,6.83
2022-09-23T18:42:45.684Z,6.40
2022-09-23T18:45:12.039Z,5.97
2022-09-23T18:47:57.358Z,6.17
2022-09-23T18:50:43.208Z,5.77
2022-09-23T18:53:09.989Z,5.67
2022-09-23T18:55:36.374Z,5.27
2022-09-23T18:58:02.687Z,5.03
2022-09-23T19:00:29.055Z,5.70
2022-09-23T19:02:55.440Z,4.77
2022-09-23T19:05:21.837Z,5.03
2022-09-23T19:07:48.076Z,4.83
2022-09-23T19:10:15.199Z,4.93
2022-09-23T19:12:41.634Z,5.20
2022-09-23T19:15:08.153Z,5.07
2022-09-23T19:17:34.473Z,5.40
2022-09-23T19:20:00.786Z,5.17
2022-09-23T19:22:27.075Z,5.20
2022-09-23T19:24:53.360Z,5.07
2022-09-23T19:27:19.576Z,5.27
2022-09-23T19:29:47.974Z,5.53
2022-09-23T19:32:15.946Z,5.50
2022-09-23T19:34:42.168Z,5.40
2022-09-23T19:37:08.400Z,5.20
2022-09-23T19:39:35.055Z,5.60
2022-09-23T19:42:01.716Z,5.60
2022-09-23T19:44:27.990Z,5.43
2022-09-23T19:46:56.937Z,5.23
2022-09-23T19:49:24.447Z,5.50
2022-09-23T19:51:51.013Z,5.57
2022-09-23T19:54:20.376Z,6.27
2022-09-23T19:56:47.545Z,5.97
2022-09-23T19:59:18.332Z,5.70
2022-09-23T20:01:45.176Z,5.20
2022-09-23T20:04:11.427Z,5.80
2022-09-23T20:06:40.957Z,5.93
2022-09-23T20:09:07.416Z,7.40
2022-09-23T20:11:34.515Z,6.60
2022-09-23T20:14:02.123Z,6.17
2022-09-23T20:16:31.658Z,6.67
2022-09-23T20:18:59.590Z,6.40
2022-09-23T20:21:26.630Z,6.00
2022-09-23T20:23:52.895Z,6.20
2022-09-23T20:26:37.766Z,6.17
2022-09-23T20:29:04.258Z,6.27
2022-09-23T20:31:32.053Z,6.20
2022-09-23T20:33:58.874Z,6.00
2022-09-23T20:36:25.773Z,6.23
2022-09-23T20:38:55.835Z,6.10
2022-09-23T20:41:22.201Z,6.63
2022-09-23T20:43:51.766Z,6.20
2022-09-23T20:46:18.036Z,6.30
2022-09-23T20:48:46.340Z,6.60
2022-09-23T20:51:12.590Z,7.23
2022-09-23T20:53:38.975Z,6.63
2022-09-23T20:56:05.920Z,6.63
2022-09-23T20:58:36.533Z,6.33
2022-09-23T21:01:04.299Z,6.80
2022-09-23T21:03:33.959Z,6.73
2022-09-23T21:06:01.358Z,6.73
2022-09-23T21:08:27.648Z,6.93
2022-09-23T21:10:57.651Z,7.43
2022-09-23T21:13:23.948Z,6.63
2022-09-23T21:15:50.510Z,7.40
2022-09-23T21:18:21.732Z,7.07
2022-09-23T21:20:55.713Z,7.20
2022-09-23T21:23:26.311Z,7.23
2022-09-23T21:25:53.220Z,7.37
2022-09-23T21:28:19.429Z,7.30
2022-09-23T21:30:51.112Z,7.20
2022-09-23T21:33:18.216Z,7.50
2022-09-23T21:35:44.433Z,7.90
2022-09-23T21:38:10.642Z,7.17
2022-09-23T21:40:55.521Z,7.00
2022-09-23T21:43:23.036Z,7.33
2022-09-23T21:45:49.681Z,7.53
2022-09-23T21:48:16.023Z,6.67
2022-09-23T21:50:42.302Z,6.83
2022-09-23T21:53:08.596Z,6.70
2022-09-23T21:55:34.820Z,6.10
2022-09-23T21:58:01.228Z,7.40
2022-09-23T22:00:27.573Z,7.13
2022-09-23T22:02:53.854Z,7.03
2022-09-23T22:05:20.076Z,6.13
2022-09-23T22:07:46.300Z,7.00
2022-09-23T22:10:12.569Z,6.63
2022-09-23T22:12:38.819Z,6.60
2022-09-23T22:15:06.816Z,6.63
2022-09-23T22:17:33.110Z,6.73
2022-09-23T22:19:59.376Z,6.70
2022-09-23T22:22:25.640Z,6.83
2022-09-23T22:24:52.264Z,6.33
2022-09-23T22:27:19.316Z,6.40
2022-09-23T22:30:04.244Z,6.60
2022-09-23T22:32:46.042Z,7.13
2022-09-23T22:35:13.732Z,6.60
2022-09-23T22:37:39.963Z,6.37
2022-09-23T22:40:08.189Z,6.53
2022-09-23T22:42:35.964Z,6.50
2022-09-23T22:45:05.244Z,6.43
2022-09-23T22:47:38.603Z,5.77
2022-09-23T22:50:05.750Z,6.17
2022-09-23T22:52:32.052Z,6.13
2022-09-23T22:54:58.289Z,5.90
2022-09-23T22:57:24.518Z,6.17
2022-09-23T22:59:50.765Z,6.77
2022-09-23T23:02:18.006Z,6.27
2022-09-23T23:04:47.483Z,6.67
2022-09-23T23:07:14.800Z,6.30
2022-09-23T23:09:41.036Z,6.57
2022-09-23T23:12:07.831Z,6.30
2022-09-23T23:14:35.605Z,6.10
2022-09-23T23:17:01.852Z,5.40
2022-09-23T23:19:28.068Z,6.03
2022-09-23T23:21:54.347Z,6.43
2022-09-23T23:24:21.783Z,5.97
2022-09-23T23:26:48.569Z,6.40
2022-09-23T23:29:15.664Z,6.57
2022-09-23T23:31:42.117Z,6.13
2022-09-23T23:34:11.783Z,6.37
2022-09-23T23:36:38.350Z,6.30
2022-09-23T23:39:04.634Z,6.50
2022-09-23T23:41:31.490Z,6.27
2022-09-23T23:43:58.835Z,6.07
2022-09-23T23:46:26.443Z,6.27
2022-09-23T23:48:53.462Z,6.47
2022-09-23T23:51:20.181Z,6.57
2022-09-23T23:53:48.193Z,6.80
2022-09-23T23:56:15.855Z,6.80
2022-09-23T23:58:42.465Z,6.33
